Time;durP1;ratioP1;P1;durP2;ratioP2;P2;SDS_P1;SDS_P2;PMS_P1;PMS_P2;Temp;Humidity;BMP_temperature;BMP_pressure;BME280_temperature;BME280_humidity;BME280_pressure;Samples;Min_cycle;Max_cycle;Signal;HPM_P1;HPM_P2
2023/01/22 00:00:56;;;;;;;10.57;5.95;;;0.70;99.90;;;;;;5033072;28;20056;-74
2023/01/22 00:03:22;;;;;;;12.75;6.82;;;0.60;99.90;;;;;;5017900;28;20086;-75
2023/01/22 00:05:49;;;;;;;13.35;7.65;;;0.60;99.90;;;;;;5034085;28;20056;-74
2023/01/22 00:08:15;;;;;;;11.93;6.97;;;0.60;99.90;;;;;;5032899;28;20041;-75
2023/01/22 00:10:50;;;;;;;11.82;7.22;;;0.80;99.90;;;;;;5029572;28;20048;-74
2023/01/22 00:13:16;;;;;;;11.90;7.25;;;0.60;99.90;;;;;;5028404;28;20088;-74
2023/01/22 00:15:42;;;;;;;16.52;7.63;;;0.60;99.90;;;;;;5018970;28;20054;-73
2023/01/22 00:18:08;;;;;;;12.35;6.85;;;0.50;99.90;;;;;;5035106;28;20398;-73
2023/01/22 00:20:33;;;;;;;11.63;7.05;;;0.80;99.90;;;;;;5013018;28;20045;-73
2023/01/22 00:22:59;;;;;;;13.68;6.97;;;0.50;99.90;;;;;;5041471;28;20425;-73
2023/01/22 00:25:25;;;;;;;17.83;8.10;;;0.50;99.90;;;;;;5035546;28;20067;-73
2023/01/22 00:27:51;;;;;;;13.63;7.38;;;0.50;99.90;;;;;;5012168;28;20053;-73
2023/01/22 00:30:17;;;;;;;12.95;7.05;;;0.40;99.90;;;;;;5032220;28;20079;-73
2023/01/22 00:32:45;;;;;;;13.57;7.05;;;0.50;99.90;;;;;;5030273;28;22863;-73
2023/01/22 00:35:10;;;;;;;14.15;7.35;;;0.40;99.90;;;;;;5033925;28;20040;-72
2023/01/22 00:37:36;;;;;;;14.02;7.53;;;0.60;99.90;;;;;;5036382;28;20839;-72
2023/01/22 00:40:02;;;;;;;19.98;8.35;;;0.40;99.90;;;;;;5020466;28;20059;-73
2023/01/22 00:42:28;;;;;;;18.45;8.38;;;0.40;99.90;;;;;;5028486;28;20037;-74
2023/01/22 00:44:54;;;;;;;13.77;7.30;;;0.40;99.90;;;;;;5033147;28;20095;-73
2023/01/22 00:47:19;;;;;;;16.88;7.97;;;0.40;99.90;;;;;;5015548;28;20045;-73
2023/01/22 00:49:45;;;;;;;17.27;8.73;;;0.30;99.90;;;;;;5033242;28;20041;-72
2023/01/22 00:52:10;;;;;;;19.77;8.48;;;0.30;99.90;;;;;;5027711;28;20040;-73
2023/01/22 00:54:36;;;;;;;18.58;8.38;;;0.30;99.90;;;;;;5031900;28;20041;-73
2023/01/22 00:57:02;;;;;;;17.88;8.93;;;0.30;99.90;;;;;;5029144;28;20072;-73
2023/01/22 00:59:27;;;;;;;21.08;8.82;;;0.50;99.90;;;;;;5025392;28;20045;-73
2023/01/22 01:01:53;;;;;;;19.90;9.07;;;0.30;99.90;;;;;;5028988;28;20065;-73
2023/01/22 01:04:19;;;;;;;17.25;9.45;;;0.30;99.90;;;;;;5012921;28;20037;-74
2023/01/22 01:06:45;;;;;;;21.40;9.20;;;0.20;99.90;;;;;;5032321;28;20083;-74
2023/01/22 01:09:10;;;;;;;17.85;9.05;;;0.70;99.90;;;;;;5035396;28;20045;-74
2023/01/22 01:11:36;;;;;;;20.48;8.73;;;0.20;99.90;;;;;;5030993;28;20072;-74
2023/01/22 01:14:02;;;;;;;16.95;9.57;;;0.20;99.90;;;;;;5032663;28;20049;-75
2023/01/22 01:16:30;;;;;;;23.45;10.95;;;0.30;99.90;;;;;;5034351;28;20080;-75
2023/01/22 01:19:00;;;;;;;18.58;9.10;;;0.30;99.90;;;;;;5034459;28;20052;-74
2023/01/22 01:21:26;;;;;;;19.63;9.23;;;0.30;99.90;;;;;;5013923;28;20421;-74
2023/01/22 01:23:57;;;;;;;19.45;9.75;;;0.30;99.90;;;;;;5030291;28;20060;-75
2023/01/22 01:26:23;;;;;;;14.63;7.00;;;0.20;99.90;;;;;;5032658;28;20049;-72
2023/01/22 01:28:51;;;;;;;18.83;9.43;;;0.30;99.90;;;;;;5031900;28;20049;-73
2023/01/22 01:31:18;;;;;;;18.45;9.68;;;0.20;99.90;;;;;;5019891;28;20037;-73
2023/01/22 01:33:44;;;;;;;20.88;9.95;;;0.20;99.90;;;;;;5034835;28;20048;-74
2023/01/22 01:36:22;;;;;;;17.77;9.57;;;0.50;99.90;;;;;;5030602;28;20564;-74
2023/01/22 01:38:48;;;;;;;21.02;9.25;;;0.20;99.90;;;;;;5015396;28;20075;-74
2023/01/22 01:41:20;;;;;;;19.27;9.70;;;0.40;99.90;;;;;;5029188;28;20041;-75
2023/01/22 01:44:04;;;;;;;17.42;9.20;;;0.30;99.90;;;;;;5013799;28;20564;-74
2023/01/22 01:46:31;;;;;;;17.80;9.18;;;0.20;99.90;;;;;;5034367;28;20111;-74
2023/01/22 01:48:57;;;;;;;17.45;8.63;;;0.60;99.90;;;;;;5037641;28;20049;-74
2023/01/22 01:51:34;;;;;;;20.55;9.32;;;0.20;99.90;;;;;;5032423;28;20056;-73
2023/01/22 01:54:03;;;;;;;18.35;8.93;;;0.20;99.90;;;;;;5034313;28;20072;-75
2023/01/22 01:56:42;;;;;;;16.10;9.45;;;0.30;99.90;;;;;;5030909;28;20041;-73
2023/01/22 01:59:12;;;;;;;17.05;9.45;;;1.50;99.90;;;;;;5030680;28;20054;-74
2023/01/22 02:01:38;;;;;;;18.45;10.15;;;0.30;99.90;;;;;;5017456;28;20053;-73
2023/01/22 02:04:04;;;;;;;22.25;9.75;;;0.20;99.90;;;;;;5035042;28;20334;-73
2023/01/22 02:06:30;;;;;;;19.13;9.80;;;0.20;99.90;;;;;;5029748;28;20040;-74
2023/01/22 02:08:56;;;;;;;22.15;10.32;;;0.20;99.90;;;;;;5051913;28;20103;-73
2023/01/22 02:11:23;;;;;;;19.52;10.38;;;0.20;99.90;;;;;;5019806;28;20057;-73
2023/01/22 02:14:01;;;;;;;20.00;9.40;;;0.20;99.90;;;;;;5036332;28;20053;-73
2023/01/22 02:16:27;;;;;;;20.65;9.52;;;0.20;99.90;;;;;;5032820;28;20036;-73
2023/01/22 02:18:52;;;;;;;21.42;10.05;;;0.40;99.90;;;;;;5032660;28;20130;-73
2023/01/22 02:21:30;;;;;;;19.65;9.02;;;0.40;99.90;;;;;;5015304;28;20517;-73
2023/01/22 02:23:56;;;;;;;15.93;8.57;;;0.20;99.90;;;;;;5032797;28;20072;-73
2023/01/22 02:26:23;;;;;;;21.67;9.75;;;0.20;99.90;;;;;;5029899;28;20038;-73
2023/01/22 02:28:48;;;;;;;20.00;9.90;;;-0.80;99.90;;;;;;5030436;28;20091;-74
2023/01/22 02:31:14;;;;;;;20.08;10.07;;;0.90;99.90;;;;;;5028239;28;20036;-74
2023/01/22 02:33:40;;;;;;;22.73;10.98;;;0.60;99.90;;;;;;5034833;28;20404;-73
2023/01/22 02:36:06;;;;;;;19.63;11.23;;;0.20;99.90;;;;;;5018823;28;20045;-73
2023/01/22 02:38:32;;;;;;;22.02;10.68;;;0.20;99.90;;;;;;5022374;28;20672;-74
2023/01/22 02:40:58;;;;;;;22.10;10.75;;;0.20;99.90;;;;;;5035479;28;20040;-73
2023/01/22 02:43:24;;;;;;;24.15;10.95;;;0.20;99.90;;;;;;5031751;28;20065;-73
2023/01/22 02:45:49;;;;;;;22.45;10.40;;;0.20;99.90;;;;;;5031381;28;20037;-74
2023/01/22 02:48:15;;;;;;;22.30;10.80;;;0.20;99.90;;;;;;5031864;28;20041;-73
2023/01/22 02:50:41;;;;;;;24.38;10.52;;;0.20;99.90;;;;;;5013603;28;20048;-74
2023/01/22 02:53:07;;;;;;;21.50;10.38;;;0.20;99.90;;;;;;5036050;28;20064;-74
2023/01/22 02:55:32;;;;;;;22.13;11.05;;;0.20;99.90;;;;;;5014487;28;20053;-74
2023/01/22 02:57:58;;;;;;;21.67;11.25;;;0.20;99.90;;;;;;5014858;28;20052;-75
2023/01/22 03:00:24;;;;;;;22.42;10.90;;;0.40;99.90;;;;;;5014002;28;20045;-74
2023/01/22 03:02:49;;;;;;;22.88;10.13;;;0.20;99.90;;;;;;5033680;28;20150;-74
2023/01/22 03:05:15;;;;;;;20.77;10.65;;;0.20;99.90;;;;;;5033554;28;20044;-74
2023/01/22 03:07:41;;;;;;;23.92;10.13;;;0.20;99.90;;;;;;5035517;28;20111;-75
2023/01/22 03:10:18;;;;;;;21.15;10.35;;;0.20;99.90;;;;;;5032804;28;20048;-75
2023/01/22 03:21:19;;;;;;;23.08;9.02;;;0.20;99.90;;;;;;5032446;28;20267;-74
2023/01/22 03:23:53;;;;;;;18.85;9.90;;;0.20;99.90;;;;;;5032337;28;20063;-74
2023/01/22 03:26:21;;;;;;;19.02;9.60;;;0.20;99.90;;;;;;5033097;28;20114;-75
2023/01/22 03:28:47;;;;;;;20.05;9.15;;;0.20;99.90;;;;;;5029738;28;20059;-74
2023/01/22 03:31:14;;;;;;;17.35;7.40;;;1.10;99.90;;;;;;5015415;28;20049;-75
2023/01/22 03:33:40;;;;;;;18.27;8.35;;;0.20;99.90;;;;;;5038872;28;20433;-75
2023/01/22 03:36:09;;;;;;;17.90;8.50;;;1.00;99.90;;;;;;5055134;28;20049;-74
2023/01/22 03:38:35;;;;;;;18.08;7.55;;;0.20;99.90;;;;;;5013657;28;20119;-75
2023/01/22 03:41:10;;;;;;;15.88;7.53;;;0.20;99.90;;;;;;5031418;28;20037;-75
2023/01/22 03:43:36;;;;;;;14.48;7.40;;;0.20;99.90;;;;;;5020623;28;20402;-73
2023/01/22 03:46:21;;;;;;;14.15;6.07;;;0.20;99.90;;;;;;5013643;28;20044;-73
2023/01/22 03:48:50;;;;;;;14.88;6.35;;;0.20;99.90;;;;;;5027169;28;20067;-73
2023/01/22 03:51:16;;;;;;;15.55;6.55;;;0.30;99.90;;;;;;5027840;28;20854;-74
2023/01/22 03:53:43;;;;;;;11.88;5.85;;;0.30;99.90;;;;;;5011534;28;20057;-74
2023/01/22 03:56:14;;;;;;;12.90;6.32;;;0.30;99.90;;;;;;5028549;28;20468;-74
2023/01/22 03:58:40;;;;;;;14.00;6.00;;;1.60;99.90;;;;;;5027043;28;20514;-74
2023/01/22 04:01:12;;;;;;;12.88;5.53;;;0.30;99.90;;;;;;5027402;28;20469;-72
2023/01/22 04:03:38;;;;;;;14.38;5.78;;;0.30;99.90;;;;;;5026286;28;20158;-73
2023/01/22 04:06:05;;;;;;;12.15;5.80;;;0.30;99.90;;;;;;5032283;28;20389;-74
2023/01/22 04:08:32;;;;;;;10.07;5.35;;;0.30;99.90;;;;;;5026416;28;20728;-73
2023/01/22 04:11:02;;;;;;;12.93;6.18;;;0.40;99.90;;;;;;5030545;28;20038;-73
2023/01/22 04:13:31;;;;;;;13.55;5.82;;;0.50;99.90;;;;;;5054860;28;20160;-74
2023/01/22 04:15:56;;;;;;;9.82;5.32;;;0.40;99.90;;;;;;5060929;28;22459;-74
2023/01/22 04:18:22;;;;;;;14.65;5.75;;;1.10;99.90;;;;;;5055878;28;20045;-74
2023/01/22 04:20:49;;;;;;;14.98;5.55;;;0.40;99.90;;;;;;5016496;28;20136;-73
2023/01/22 04:23:18;;;;;;;13.05;5.65;;;0.40;99.90;;;;;;5031112;28;20457;-73
2023/01/22 04:25:44;;;;;;;13.68;5.35;;;0.40;99.90;;;;;;5019496;28;20213;-73
2023/01/22 04:28:11;;;;;;;13.70;5.93;;;0.40;99.90;;;;;;5030307;28;20083;-74
2023/01/22 04:30:37;;;;;;;10.57;5.63;;;1.20;99.90;;;;;;5011674;28;20098;-74
2023/01/22 04:33:03;;;;;;;14.48;5.80;;;0.40;99.90;;;;;;5036887;28;20048;-74
2023/01/22 04:35:30;;;;;;;13.48;5.82;;;0.40;99.90;;;;;;5037600;28;20075;-74
2023/01/22 04:37:56;;;;;;;10.45;5.07;;;0.50;99.90;;;;;;5039656;28;20458;-74
2023/01/22 04:40:23;;;;;;;12.45;5.85;;;0.50;99.90;;;;;;5039043;28;20033;-74
2023/01/22 04:42:49;;;;;;;10.50;4.80;;;0.50;99.90;;;;;;5034187;28;20056;-74
2023/01/22 04:45:15;;;;;;;11.60;5.57;;;0.80;99.90;;;;;;5018297;28;20041;-74
2023/01/22 04:47:42;;;;;;;11.77;5.07;;;0.50;99.90;;;;;;5033842;28;20048;-72
2023/01/22 04:50:15;;;;;;;13.90;6.03;;;0.70;99.90;;;;;;5033825;28;20044;-72
2023/01/22 04:52:41;;;;;;;14.00;5.68;;;1.40;99.90;;;;;;5032806;28;20048;-72
2023/01/22 04:55:07;;;;;;;10.73;5.13;;;1.30;99.90;;;;;;5051270;28;20521;-73
2023/01/22 04:57:33;;;;;;;13.82;6.20;;;0.60;99.90;;;;;;5050871;28;20495;-72
2023/01/22 04:59:58;;;;;;;13.10;5.07;;;0.60;99.90;;;;;;5016540;28;20037;-73
2023/01/22 05:02:24;;;;;;;10.02;5.47;;;0.60;99.90;;;;;;5036644;28;20375;-73
2023/01/22 05:04:50;;;;;;;13.63;7.25;;;0.60;99.90;;;;;;5035847;28;20049;-73
2023/01/22 05:07:15;;;;;;;14.95;5.75;;;0.60;99.90;;;;;;5049603;28;20036;-73
2023/01/22 05:09:41;;;;;;;13.27;5.53;;;0.70;99.90;;;;;;5035353;28;20119;-73
2023/01/22 05:12:07;;;;;;;13.93;5.68;;;0.70;99.90;;;;;;5016855;28;20041;-73
2023/01/22 05:14:32;;;;;;;12.63;5.40;;;1.40;99.90;;;;;;5033012;28;20056;-74
2023/01/22 05:16:58;;;;;;;12.38;5.55;;;0.80;99.90;;;;;;5052361;28;20037;-74
2023/01/22 05:19:24;;;;;;;10.32;5.47;;;1.10;99.90;;;;;;5022749;28;20048;-73
2023/01/22 05:21:49;;;;;;;12.27;5.72;;;0.70;99.90;;;;;;5039602;28;20138;-72
2023/01/22 05:24:17;;;;;;;13.73;5.85;;;0.70;99.90;;;;;;5019908;28;20516;-72
2023/01/22 05:26:43;;;;;;;10.52;5.35;;;0.80;99.90;;;;;;5036475;28;20041;-72
2023/01/22 05:29:09;;;;;;;9.52;4.80;;;0.70;99.90;;;;;;5043964;28;20108;-73
2023/01/22 05:31:35;;;;;;;11.60;5.63;;;1.10;99.90;;;;;;5019687;28;20189;-73
2023/01/22 05:34:00;;;;;;;9.68;5.07;;;0.80;99.90;;;;;;5041191;28;20075;-73
2023/01/22 05:36:26;;;;;;;11.50;4.68;;;0.80;99.90;;;;;;5023429;28;20049;-72
2023/01/22 05:38:52;;;;;;;7.93;4.00;;;0.80;99.90;;;;;;5039906;28;20080;-72
2023/01/22 05:41:18;;;;;;;11.48;3.65;;;0.80;99.90;;;;;;5053131;28;20047;-72
2023/01/22 05:43:44;;;;;;;10.45;3.80;;;0.80;99.90;;;;;;5036667;28;20056;-73
2023/01/22 05:46:10;;;;;;;11.88;3.70;;;1.80;99.90;;;;;;5039312;28;20040;-73
2023/01/22 05:48:36;;;;;;;9.75;4.97;;;1.10;99.90;;;;;;5038502;28;20041;-72
2023/01/22 05:51:08;;;;;;;9.02;3.78;;;0.90;99.90;;;;;;5044645;28;20398;-72
2023/01/22 05:53:34;;;;;;;7.32;3.53;;;1.00;99.90;;;;;;5026218;28;20139;-72
2023/01/22 05:56:05;;;;;;;7.60;3.20;;;0.90;99.90;;;;;;5018111;28;20048;-73
2023/01/22 05:58:31;;;;;;;10.02;3.17;;;0.90;99.90;;;;;;5054224;28;20178;-73
2023/01/22 06:00:57;;;;;;;10.35;3.15;;;0.90;99.90;;;;;;5022035;28;20048;-72
2023/01/22 06:03:23;;;;;;;9.13;3.40;;;1.10;99.90;;;;;;5052615;28;20040;-72
2023/01/22 06:06:02;;;;;;;9.23;3.38;;;1.30;99.90;;;;;;5025407;28;20447;-73
2023/01/22 06:08:28;;;;;;;11.52;4.05;;;0.90;99.90;;;;;;5050928;28;20032;-73
2023/01/22 06:11:02;;;;;;;9.52;4.00;;;0.90;99.90;;;;;;5035044;28;20047;-73
2023/01/22 06:13:28;;;;;;;8.38;3.55;;;1.70;99.90;;;;;;5058797;28;20056;-72
2023/01/22 06:15:54;;;;;;;6.70;3.53;;;0.90;99.90;;;;;;5032991;28;20063;-72
2023/01/22 06:18:21;;;;;;;8.10;3.25;;;2.10;99.90;;;;;;5018522;28;20094;-71
2023/01/22 06:20:47;;;;;;;8.73;3.42;;;1.60;99.90;;;;;;5017222;28;20055;-73
2023/01/22 06:23:13;;;;;;;7.32;3.67;;;0.90;99.90;;;;;;5034825;28;20314;-73
2023/01/22 06:25:39;;;;;;;8.88;3.95;;;0.90;99.90;;;;;;5020880;28;20091;-72
2023/01/22 06:28:05;;;;;;;8.30;3.53;;;0.90;99.90;;;;;;5033235;28;20037;-73
2023/01/22 06:30:30;;;;;;;11.80;3.90;;;0.90;99.90;;;;;;5053201;28;20102;-73
2023/01/22 06:32:56;;;;;;;7.25;3.67;;;0.90;99.90;;;;;;5020673;28;20040;-73
2023/01/22 06:35:22;;;;;;;7.70;3.58;;;0.90;99.90;;;;;;5037129;28;20336;-74
2023/01/22 06:37:48;;;;;;;7.25;3.35;;;0.90;99.90;;;;;;5030508;28;20052;-72
2023/01/22 06:40:14;;;;;;;9.20;3.85;;;1.40;99.90;;;;;;5033667;28;20037;-73
2023/01/22 06:42:39;;;;;;;9.98;4.13;;;0.90;99.90;;;;;;5032813;28;20049;-73
2023/01/22 06:45:06;;;;;;;10.40;4.22;;;0.90;99.90;;;;;;5034429;28;20044;-72
2023/01/22 06:47:31;;;;;;;11.52;4.07;;;0.90;99.90;;;;;;5054820;28;20036;-74
2023/01/22 06:49:58;;;;;;;10.93;4.57;;;0.90;99.90;;;;;;5038324;28;20036;-73
2023/01/22 06:52:23;;;;;;;13.10;4.60;;;0.90;99.90;;;;;;5015521;28;20123;-73
2023/01/22 06:54:49;;;;;;;8.02;4.03;;;0.90;99.90;;;;;;5049179;28;20055;-72
2023/01/22 06:57:15;;;;;;;12.55;4.15;;;0.90;99.90;;;;;;5032200;28;20052;-73
2023/01/22 06:59:41;;;;;;;13.68;4.65;;;0.90;99.90;;;;;;5032068;28;20036;-72
2023/01/22 07:02:06;;;;;;;11.52;4.97;;;1.70;99.90;;;;;;5050685;28;20036;-72
2023/01/22 07:04:32;;;;;;;9.63;4.40;;;0.90;99.90;;;;;;5023556;28;20041;-72
2023/01/22 07:06:58;;;;;;;10.30;4.18;;;0.90;99.90;;;;;;5037747;28;20049;-72
2023/01/22 07:09:24;;;;;;;8.15;4.40;;;0.90;99.90;;;;;;5056676;28;20063;-72
2023/01/22 07:11:49;;;;;;;17.63;4.82;;;0.90;99.90;;;;;;5034813;28;20051;-73
2023/01/22 07:14:15;;;;;;;10.70;4.57;;;0.90;99.90;;;;;;5034650;28;20486;-73
2023/01/22 07:16:41;;;;;;;9.65;4.03;;;0.90;99.90;;;;;;5020972;28;20044;-73
2023/01/22 07:19:06;;;;;;;10.85;4.45;;;0.90;99.90;;;;;;5035516;28;20111;-73
2023/01/22 07:21:32;;;;;;;11.23;5.15;;;0.80;99.90;;;;;;5054933;28;20045;-72
2023/01/22 07:23:58;;;;;;;13.88;5.45;;;0.90;99.90;;;;;;5050669;28;20055;-74
2023/01/22 07:26:23;;;;;;;9.40;4.80;;;0.80;99.90;;;;;;5039748;28;20067;-74
2023/01/22 07:28:49;;;;;;;13.25;4.95;;;0.80;99.90;;;;;;5033170;28;20793;-73
2023/01/22 07:31:15;;;;;;;10.55;5.72;;;0.80;99.90;;;;;;5055184;28;20040;-74
2023/01/22 07:33:41;;;;;;;14.45;5.45;;;0.80;99.90;;;;;;5021564;28;20074;-73
2023/01/22 07:36:06;;;;;;;8.40;4.88;;;0.80;99.90;;;;;;5059656;28;20040;-73
2023/01/22 07:38:32;;;;;;;8.65;5.03;;;0.80;99.90;;;;;;5025740;28;20573;-73
2023/01/22 07:41:05;;;;;;;12.50;5.70;;;0.80;99.90;;;;;;5034796;28;20147;-74
2023/01/22 07:43:31;;;;;;;13.98;5.63;;;0.80;99.90;;;;;;5040831;28;20044;-73
2023/01/22 07:46:04;;;;;;;13.23;6.20;;;0.80;99.90;;;;;;5035359;28;20048;-74
2023/01/22 07:48:33;;;;;;;9.63;6.35;;;0.80;99.90;;;;;;5038601;28;20071;-73
2023/01/22 07:51:04;;;;;;;11.40;5.00;;;0.80;99.90;;;;;;5058139;28;20504;-74
2023/01/22 07:53:31;;;;;;;15.00;6.28;;;0.80;99.90;;;;;;5035441;28;20056;-74
2023/01/22 07:55:57;;;;;;;11.75;5.75;;;0.70;99.90;;;;;;5037446;28;20052;-73
2023/01/22 07:58:23;;;;;;;9.23;5.90;;;1.20;99.90;;;;;;5053343;28;20052;-73
2023/01/22 08:00:49;;;;;;;11.50;5.57;;;0.70;99.90;;;;;;5032862;28;20048;-75
2023/01/22 08:03:15;;;;;;;13.02;6.13;;;1.20;99.90;;;;;;5035127;28;20044;-74
2023/01/22 08:05:42;;;;;;;13.52;6.10;;;0.70;99.90;;;;;;5031551;28;20053;-75
2023/01/22 08:08:21;;;;;;;11.98;6.07;;;0.70;99.90;;;;;;5031691;28;20125;-75
2023/01/22 08:10:47;;;;;;;9.98;5.88;;;0.70;99.90;;;;;;5033892;28;20052;-73
2023/01/22 08:13:13;;;;;;;11.80;6.25;;;0.70;99.90;;;;;;5056070;28;20056;-72
2023/01/22 08:15:41;;;;;;;11.75;7.25;;;0.70;99.90;;;;;;5036665;28;20036;-73
2023/01/22 08:18:07;;;;;;;13.85;6.63;;;0.70;99.90;;;;;;5038189;28;20588;-74
2023/01/22 08:20:33;;;;;;;13.77;6.18;;;0.70;99.90;;;;;;5033995;28;20053;-74
2023/01/22 08:23:02;;;;;;;11.32;6.05;;;0.70;99.90;;;;;;5037805;28;20047;-72
2023/01/22 08:25:28;;;;;;;17.35;9.73;;;0.70;99.90;;;;;;5052642;28;20044;-73
2023/01/22 08:27:55;;;;;;;15.18;6.88;;;0.70;99.90;;;;;;5034938;28;20048;-72
2023/01/22 08:30:21;;;;;;;19.13;10.73;;;0.80;99.90;;;;;;5018318;28;20859;-72
2023/01/22 08:32:49;;;;;;;11.85;6.20;;;0.70;99.90;;;;;;5033345;28;20056;-73
2023/01/22 08:35:15;;;;;;;13.95;7.28;;;0.60;99.90;;;;;;5049153;28;20157;-72
2023/01/22 08:37:42;;;;;;;16.80;7.43;;;0.60;99.90;;;;;;5014862;28;20056;-73
2023/01/22 08:40:09;;;;;;;12.57;7.18;;;1.10;99.90;;;;;;5031606;28;20072;-73
2023/01/22 08:42:35;;;;;;;11.07;6.35;;;0.60;99.90;;;;;;5045721;28;20056;-73
2023/01/22 08:45:01;;;;;;;12.50;6.85;;;0.60;99.90;;;;;;5029747;28;20048;-74
2023/01/22 08:47:26;;;;;;;14.45;6.95;;;0.70;99.90;;;;;;5035856;28;20033;-74
2023/01/22 08:49:52;;;;;;;13.60;8.15;;;0.60;99.90;;;;;;5035824;28;20528;-72
2023/01/22 08:52:18;;;;;;;16.88;8.07;;;0.60;99.90;;;;;;5016715;28;20040;-73
2023/01/22 08:54:44;;;;;;;14.95;7.20;;;0.60;99.90;;;;;;5031677;28;20124;-72
2023/01/22 08:57:09;;;;;;;9.27;6.07;;;0.60;99.90;;;;;;5051639;28;20066;-73
2023/01/22 08:59:35;;;;;;;12.55;5.82;;;0.80;99.90;;;;;;5021586;28;20074;-72
2023/01/22 09:02:01;;;;;;;12.98;6.80;;;0.60;99.90;;;;;;5039201;28;20408;-72
2023/01/22 09:04:27;;;;;;;12.63;6.22;;;0.90;99.90;;;;;;5054828;28;20045;-73
2023/01/22 09:06:53;;;;;;;12.77;6.93;;;0.60;99.90;;;;;;5059400;28;20041;-73
2023/01/22 09:09:22;;;;;;;11.48;6.03;;;0.60;99.90;;;;;;5054283;28;20032;-73
2023/01/22 09:11:48;;;;;;;12.40;6.05;;;0.60;99.90;;;;;;5019925;28;20088;-72
2023/01/22 09:14:13;;;;;;;10.57;5.18;;;0.60;99.90;;;;;;5036436;28;20131;-72
2023/01/22 09:16:39;;;;;;;8.55;4.75;;;0.60;99.90;;;;;;5041160;28;20828;-72
2023/01/22 09:19:06;;;;;;;10.65;4.82;;;0.50;99.90;;;;;;5050751;28;20110;-74
2023/01/22 09:21:32;;;;;;;7.72;4.60;;;0.60;99.90;;;;;;5032523;28;20049;-72
2023/01/22 09:23:59;;;;;;;9.32;4.32;;;0.80;99.90;;;;;;5055715;28;20060;-73
2023/01/22 09:26:25;;;;;;;11.68;4.70;;;0.50;99.90;;;;;;5037275;28;20045;-73
2023/01/22 09:28:51;;;;;;;9.90;5.32;;;0.50;99.90;;;;;;5044274;28;20448;-72
2023/01/22 09:31:17;;;;;;;9.77;4.93;;;0.60;99.90;;;;;;5042291;28;20043;-72
2023/01/22 09:33:43;;;;;;;11.00;4.63;;;0.50;99.90;;;;;;5036687;28;20048;-72
2023/01/22 09:36:13;;;;;;;8.77;5.05;;;0.50;99.90;;;;;;5050102;28;20051;-73
2023/01/22 09:38:40;;;;;;;10.25;5.20;;;0.50;99.90;;;;;;5016561;28;20399;-73
2023/01/22 09:41:17;;;;;;;10.48;4.68;;;0.60;99.90;;;;;;5029045;28;20133;-73
2023/01/22 09:43:48;;;;;;;11.13;5.10;;;0.60;99.90;;;;;;5036228;28;20171;-73
2023/01/22 09:46:23;;;;;;;13.68;4.80;;;0.60;99.90;;;;;;5059552;28;20463;-74
2023/01/22 09:48:55;;;;;;;11.25;5.35;;;0.60;99.90;;;;;;5047140;28;20056;-71
2023/01/22 09:51:21;;;;;;;12.10;5.40;;;0.60;99.90;;;;;;5018544;28;20045;-71
2023/01/22 09:53:54;;;;;;;10.77;4.47;;;1.40;99.90;;;;;;5035488;28;20044;-72
2023/01/22 09:56:54;;;;;;;8.77;4.82;;;0.70;99.90;;;;;;5050244;28;20041;-74
2023/01/22 09:59:26;;;;;;;9.57;4.65;;;0.70;99.90;;;;;;5035557;28;20101;-73
2023/01/22 10:02:00;;;;;;;9.43;4.38;;;0.80;99.90;;;;;;5045709;28;20593;-72
2023/01/22 10:04:46;;;;;;;10.48;4.53;;;1.10;99.90;;;;;;5030493;28;20048;-72
2023/01/22 10:07:20;;;;;;;9.48;4.55;;;0.80;99.90;;;;;;5032178;28;20075;-73
2023/01/22 10:09:52;;;;;;;12.32;5.43;;;1.60;99.90;;;;;;5019552;28;20068;-73
2023/01/22 10:12:17;;;;;;;;;;;0.80;99.90;;;;;;5029975;28;20052;-73
2023/01/22 10:14:43;;;;;;;12.32;4.80;;;0.80;99.90;;;;;;5009922;28;19936;-72
2023/01/22 10:17:26;;;;;;;8.30;4.20;;;0.80;99.90;;;;;;5030134;28;20076;-72
2023/01/22 10:19:57;;;;;;;9.15;4.80;;;0.80;99.90;;;;;;5027580;28;20802;-74
2023/01/22 10:22:25;;;;;;;8.95;4.38;;;0.80;99.90;;;;;;5032452;28;20076;-73
2023/01/22 10:24:51;;;;;;;8.80;4.28;;;0.80;99.90;;;;;;5014159;28;20056;-73
2023/01/22 10:27:32;;;;;;;9.73;4.00;;;0.90;99.90;;;;;;5029108;28;20048;-72
2023/01/22 10:30:01;;;;;;;9.50;5.00;;;0.90;99.90;;;;;;5034757;28;20706;-73
2023/01/22 10:32:29;;;;;;;10.85;4.82;;;0.90;99.90;;;;;;5015962;28;20165;-73
2023/01/22 10:35:24;;;;;;;9.13;4.28;;;0.90;99.90;;;;;;5031762;28;20391;-73
2023/01/22 10:37:53;;;;;;;12.88;4.85;;;0.90;99.90;;;;;;5026161;28;20055;-72
2023/01/22 10:40:29;;;;;;;11.45;5.28;;;2.00;99.90;;;;;;5031900;28;20052;-73
2023/01/22 10:43:09;;;;;;;10.77;5.70;;;1.00;99.90;;;;;;5014515;28;20056;-72
2023/01/22 10:45:35;;;;;;;15.98;5.45;;;1.00;99.90;;;;;;5030322;28;20071;-73
2023/01/22 10:48:08;;;;;;;11.85;5.30;;;1.00;99.90;;;;;;5016067;28;20037;-73
2023/01/22 10:50:34;;;;;;;12.75;5.85;;;1.00;99.90;;;;;;5031306;28;20048;-73
2023/01/22 10:53:02;;;;;;;13.98;6.32;;;1.00;99.90;;;;;;5016842;28;20056;-74
2023/01/22 10:55:30;;;;;;;13.27;5.78;;;1.00;99.90;;;;;;5030165;28;20142;-72
2023/01/22 10:58:03;;;;;;;12.18;6.40;;;2.00;99.90;;;;;;5032389;28;20057;-72
2023/01/22 11:00:37;;;;;;;11.80;5.70;;;1.10;99.90;;;;;;5030711;28;20077;-73
2023/01/22 11:03:23;;;;;;;12.32;5.93;;;1.10;99.90;;;;;;5029940;28;20059;-72
2023/01/22 11:05:56;;;;;;;12.00;6.25;;;1.20;99.90;;;;;;5029083;28;20049;-74
2023/01/22 11:08:29;;;;;;;13.90;6.65;;;1.20;99.90;;;;;;5018055;28;20044;-73
2023/01/22 11:11:03;;;;;;;10.93;6.28;;;1.20;99.90;;;;;;5046562;28;20037;-74
2023/01/22 11:13:44;;;;;;;20.70;10.75;;;1.20;99.90;;;;;;5025113;28;20144;-73
2023/01/22 11:16:18;;;;;;;11.73;6.53;;;1.30;99.90;;;;;;5027910;28;20051;-72
2023/01/22 11:19:08;;;;;;;16.88;6.35;;;1.30;99.90;;;;;;5029083;28;20052;-73
2023/01/22 11:21:39;;;;;;;13.95;7.15;;;1.30;99.90;;;;;;5013258;28;20052;-73
2023/01/22 11:24:11;;;;;;;15.00;7.70;;;1.40;99.90;;;;;;5044984;28;20049;-74
2023/01/22 11:26:49;;;;;;;13.55;7.20;;;1.40;99.90;;;;;;5043440;28;20119;-71
2023/01/22 11:29:37;;;;;;;14.73;6.75;;;1.30;99.90;;;;;;5046545;28;20044;-72
2023/01/22 11:32:30;;;;;;;12.90;6.70;;;1.40;99.90;;;;;;5014008;28;20056;-73
2023/01/22 11:35:23;;;;;;;12.65;6.30;;;1.50;99.90;;;;;;5011401;28;20060;-72
2023/01/22 11:38:27;;;;;;;13.45;6.55;;;1.50;99.90;;;;;;5032065;28;20044;-72
2023/01/22 11:41:04;;;;;;;10.65;6.72;;;1.60;99.90;;;;;;5028014;28;20589;-71
2023/01/22 11:43:41;;;;;;;16.02;7.63;;;1.60;99.90;;;;;;5021976;28;20107;-72
2023/01/22 11:46:36;;;;;;;15.60;6.93;;;1.60;99.90;;;;;;5035385;28;20098;-72
2023/01/22 11:49:13;;;;;;;11.40;6.28;;;1.70;99.90;;;;;;5017707;28;20089;-73
2023/01/22 11:52:13;;;;;;;11.52;6.82;;;1.70;99.90;;;;;;5051669;28;20513;-72
2023/01/22 11:54:59;;;;;;;10.70;5.57;;;1.80;99.90;;;;;;5031114;28;20560;-71
2023/01/22 11:57:40;;;;;;;9.05;5.63;;;1.80;99.90;;;;;;5023965;28;20668;-71
2023/01/22 12:00:24;;;;;;;13.67;6.17;;;1.80;99.90;;;;;;5047602;28;20712;-71
2023/01/22 12:03:03;;;;;;;12.10;6.15;;;1.80;99.90;;;;;;5032377;28;21088;-72
2023/01/22 12:05:44;;;;;;;10.65;5.85;;;1.90;99.90;;;;;;5031028;28;20661;-72
2023/01/22 12:08:11;;;;;;;14.88;6.47;;;1.90;99.90;;;;;;5044385;28;20434;-71
2023/01/22 12:10:50;;;;;;;15.20;6.45;;;2.40;99.90;;;;;;5048376;28;20057;-70
2023/01/22 12:13:37;;;;;;;12.65;6.47;;;2.00;99.90;;;;;;5032335;28;20134;-70
2023/01/22 12:16:31;;;;;;;12.80;6.35;;;2.70;99.90;;;;;;5056754;28;20050;-72
2023/01/22 12:19:18;;;;;;;14.82;6.53;;;2.00;99.90;;;;;;5056407;28;20048;-70
2023/01/22 12:22:19;;;;;;;13.77;6.70;;;2.00;99.90;;;;;;5020875;28;20064;-71
2023/01/22 12:24:47;;;;;;;15.25;6.10;;;2.00;99.90;;;;;;4994942;28;20088;-71
2023/01/22 12:27:38;;;;;;;11.50;6.20;;;2.20;99.90;;;;;;5030000;28;20064;-72
2023/01/22 12:30:18;;;;;;;10.57;6.05;;;2.10;99.90;;;;;;5027508;28;20048;-71
2023/01/22 12:32:53;;;;;;;16.40;7.00;;;2.10;99.90;;;;;;5031840;28;20070;-72
2023/01/22 12:35:21;;;;;;;14.93;6.93;;;2.10;99.90;;;;;;5045358;28;20341;-71
2023/01/22 12:37:54;;;;;;;23.35;7.68;;;2.10;99.90;;;;;;5027059;28;20052;-71
2023/01/22 12:40:42;;;;;;;12.50;5.97;;;2.10;99.90;;;;;;5027742;28;20045;-71
2023/01/22 12:43:08;;;;;;;12.35;5.70;;;2.10;99.90;;;;;;5024719;28;20048;-71
2023/01/22 12:45:48;;;;;;;12.68;6.10;;;2.10;99.90;;;;;;5054865;28;20037;-72
2023/01/22 12:48:20;;;;;;;11.95;5.78;;;2.10;99.90;;;;;;5057015;28;20059;-70
2023/01/22 12:50:54;;;;;;;12.85;5.90;;;2.10;99.90;;;;;;5028024;28;20490;-70
2023/01/22 12:53:27;;;;;;;12.88;6.57;;;2.20;99.90;;;;;;5028950;28;20060;-70
2023/01/22 12:56:02;;;;;;;15.13;7.22;;;2.20;99.90;;;;;;5033567;28;20127;-70
2023/01/22 12:58:33;;;;;;;12.40;6.43;;;2.20;99.90;;;;;;5033100;28;20561;-71
2023/01/22 13:01:21;;;;;;;11.77;6.07;;;2.30;99.90;;;;;;5020316;28;20460;-71
2023/01/22 13:03:57;;;;;;;15.20;5.70;;;2.20;99.90;;;;;;5035894;28;20147;-70
2023/01/22 13:06:30;;;;;;;15.45;5.85;;;2.20;99.90;;;;;;5035881;28;20045;-70
2023/01/22 13:08:56;;;;;;;12.63;6.25;;;2.30;99.90;;;;;;5022487;28;20135;-71